createdAt,value
2022-07-26T00:01:53.414Z,21.2
2022-07-26T00:06:59.513Z,21.2
2022-07-26T00:12:05.623Z,21.5
2022-07-26T00:17:11.713Z,21.5
2022-07-26T00:22:17.814Z,21.2
2022-07-26T00:27:23.984Z,21.2
2022-07-26T00:32:30.004Z,21.5
2022-07-26T00:37:36.101Z,21.5
2022-07-26T00:42:41.212Z,21.5
2022-07-26T00:47:47.309Z,21.8
2022-07-26T00:52:53.393Z,21.2
2022-07-26T00:57:59.487Z,21.2
2022-07-26T01:03:05.604Z,21.2
2022-07-26T01:08:11.695Z,21.8
2022-07-26T01:13:17.786Z,21.5
2022-07-26T01:18:23.885Z,21.2
2022-07-26T01:23:29.968Z,21.2
2022-07-26T01:28:36.072Z,21.5
2022-07-26T01:33:42.165Z,20.8
2022-07-26T01:38:48.263Z,21.2
2022-07-26T01:43:54.350Z,20.8
2022-07-26T01:48:59.459Z,21.2
2022-07-26T01:54:05.569Z,21.2
2022-07-26T01:59:11.663Z,20.8
2022-07-26T02:04:17.763Z,20.8
2022-07-26T02:09:23.865Z,20.8
2022-07-26T02:14:29.950Z,20.8
2022-07-26T02:19:36.059Z,20.8
2022-07-26T02:24:42.136Z,20.8
2022-07-26T02:29:48.245Z,20.5
2022-07-26T02:34:54.338Z,20.5
2022-07-26T02:40:00.433Z,20.5
2022-07-26T02:45:06.537Z,20.2
2022-07-26T02:50:12.623Z,20.8
2022-07-26T02:55:17.741Z,19.9
2022-07-26T03:00:23.821Z,20.5
2022-07-26T03:05:29.918Z,19.9
2022-07-26T03:10:36.032Z,19.9
2022-07-26T03:15:42.127Z,19.9
2022-07-26T03:20:48.205Z,20.2
2022-07-26T03:25:54.305Z,19.6
2022-07-26T03:31:00.399Z,19.9
2022-07-26T03:36:06.516Z,19.6
2022-07-26T03:41:12.595Z,20.2
2022-07-26T03:46:18.700Z,19.9
2022-07-26T03:51:24.796Z,19.6
2022-07-26T03:56:30.880Z,19.2
2022-07-26T04:01:36.001Z,19.2
2022-07-26T04:06:42.091Z,19.6
2022-07-26T04:11:48.194Z,19.6
2022-07-26T04:16:54.277Z,19.6
2022-07-26T04:22:00.365Z,19.6
2022-07-26T04:27:06.480Z,19.2
2022-07-26T04:32:12.576Z,19.2
2022-07-26T04:37:18.668Z,19.2
2022-07-26T04:42:24.751Z,19.2
2022-07-26T04:47:30.865Z,19.6
2022-07-26T04:52:36.950Z,19.2
2022-07-26T04:57:43.067Z,19.9
2022-07-26T05:02:49.145Z,19.2
2022-07-26T05:07:54.248Z,19.9
2022-07-26T05:13:00.380Z,19.2
2022-07-26T05:18:06.454Z,19.6
2022-07-26T05:23:12.533Z,19.6
2022-07-26T05:28:18.634Z,19.9
2022-07-26T05:33:24.725Z,19.6
2022-07-26T05:38:30.833Z,19.9
2022-07-26T05:43:36.917Z,19.6
2022-07-26T05:48:43.016Z,19.6
2022-07-26T05:53:49.111Z,19.6
2022-07-26T05:58:55.219Z,19.6
2022-07-26T06:04:01.300Z,20.2
2022-07-26T06:09:07.398Z,19.6
2022-07-26T06:14:12.516Z,19.9
2022-07-26T06:19:18.612Z,19.6
2022-07-26T06:24:24.704Z,19.9
2022-07-26T06:29:30.798Z,19.9
2022-07-26T06:34:36.913Z,19.6
2022-07-26T06:39:42.997Z,19.9
2022-07-26T06:44:49.085Z,20.2
2022-07-26T06:49:55.180Z,19.6
2022-07-26T06:55:01.318Z,19.9
2022-07-26T07:00:07.387Z,20.2
2022-07-26T07:05:13.473Z,20.2
2022-07-26T07:10:19.597Z,20.2
2022-07-26T07:15:25.660Z,19.9
2022-07-26T07:20:30.776Z,19.6
2022-07-26T07:25:36.881Z,19.9
2022-07-26T07:30:42.966Z,19.9
2022-07-26T07:35:49.072Z,19.9
2022-07-26T07:40:55.159Z,19.9
2022-07-26T07:46:00.275Z,20.5
2022-07-26T07:51:06.359Z,19.9
2022-07-26T07:56:12.460Z,20.2
2022-07-26T08:01:18.546Z,20.2
2022-07-26T08:06:24.653Z,20.2
2022-07-26T08:11:30.764Z,19.9
2022-07-26T08:16:36.848Z,20.5
2022-07-26T08:21:42.939Z,20.5
2022-07-26T08:26:49.030Z,20.2
2022-07-26T08:31:55.146Z,20.2
2022-07-26T08:37:01.250Z,20.2
2022-07-26T08:42:07.333Z,20.2
2022-07-26T08:47:13.405Z,20.2
2022-07-26T08:52:18.526Z,20.2
2022-07-26T08:57:24.619Z,20.2
2022-07-26T09:02:30.730Z,20.5
2022-07-26T09:07:36.809Z,20.8
2022-07-26T09:12:42.916Z,20.8
2022-07-26T09:17:49.017Z,20.8
2022-07-26T09:22:55.111Z,21.2
2022-07-26T09:28:01.193Z,21.5
2022-07-26T09:33:07.303Z,22.1
2022-07-26T09:38:13.385Z,21.8
2022-07-26T09:43:19.499Z,22.1
2022-07-26T09:48:25.575Z,21.8
2022-07-26T09:53:31.685Z,21.8
2022-07-26T09:58:36.796Z,22.5
2022-07-26T10:03:42.878Z,21.8
2022-07-26T10:08:48.977Z,22.8
2022-07-26T10:13:55.082Z,22.8
2022-07-26T10:19:01.169Z,23.4
2022-07-26T10:24:07.266Z,23.1
2022-07-26T10:29:13.373Z,22.5
2022-07-26T10:34:19.463Z,22.1
2022-07-26T10:39:25.549Z,22.5
2022-07-26T10:44:31.675Z,22.8
2022-07-26T10:49:37.738Z,22.8
2022-07-26T10:54:43.855Z,23.7
2022-07-26T10:59:49.949Z,23.4
2022-07-26T11:04:55.072Z,23.4
2022-07-26T11:10:01.155Z,23.4
2022-07-26T11:15:07.260Z,22.8
2022-07-26T11:20:13.362Z,23.7
2022-07-26T11:25:19.444Z,22.8
2022-07-26T11:30:25.547Z,22.8
2022-07-26T11:35:31.645Z,22.8
2022-07-26T11:40:37.747Z,22.1
2022-07-26T11:45:43.835Z,22.1
2022-07-26T11:50:49.925Z,21.8
2022-07-26T11:55:56.038Z,21.8
2022-07-26T12:01:02.132Z,22.1
2022-07-26T12:06:08.217Z,21.8
2022-07-26T12:11:13.335Z,21.5
2022-07-26T12:16:19.431Z,21.5
2022-07-26T12:21:25.504Z,22.5
2022-07-26T12:26:31.590Z,22.1
2022-07-26T12:31:37.714Z,22.8
2022-07-26T12:36:43.805Z,24.1
2022-07-26T12:41:49.888Z,24.1
2022-07-26T12:46:55.997Z,25
2022-07-26T12:52:02.088Z,24.4
2022-07-26T12:57:08.182Z,23.7
2022-07-26T13:02:14.299Z,23.4
2022-07-26T13:07:20.369Z,22.8
2022-07-26T13:12:26.497Z,23.1
2022-07-26T13:17:31.593Z,22.8
2022-07-26T13:22:37.698Z,22.8
2022-07-26T13:27:43.790Z,22.1
2022-07-26T13:32:49.889Z,22.1
2022-07-26T13:43:02.071Z,22.1
2022-07-26T13:48:08.157Z,22.1
2022-07-26T13:53:14.259Z,22.1
2022-07-26T13:58:20.389Z,22.1
2022-07-26T14:03:26.444Z,22.1
2022-07-26T14:08:32.561Z,22.5
2022-07-26T14:13:38.634Z,21.8
2022-07-26T14:18:44.735Z,22.1
2022-07-26T14:23:49.824Z,22.1
2022-07-26T14:28:55.930Z,21.8
2022-07-26T14:34:02.020Z,22.1
2022-07-26T14:39:08.119Z,21.8
2022-07-26T14:44:14.221Z,22.1
2022-07-26T14:49:20.317Z,21.5
2022-07-26T14:54:26.412Z,21.8
2022-07-26T14:59:32.516Z,22.1
2022-07-26T15:04:38.631Z,22.1
2022-07-26T15:09:44.706Z,21.8
2022-07-26T15:14:50.779Z,22.5
2022-07-26T15:19:56.886Z,21.8
2022-07-26T15:25:02.995Z,21.8
2022-07-26T15:30:08.095Z,21.8
2022-07-26T15:35:14.176Z,21.8
2022-07-26T15:40:20.274Z,22.5
2022-07-26T15:45:26.358Z,22.5
2022-07-26T15:50:32.471Z,22.5
2022-07-26T15:55:38.563Z,22.1
2022-07-26T16:00:44.646Z,22.5
2022-07-26T16:05:50.771Z,21.8
2022-07-26T16:10:56.858Z,22.1
2022-07-26T16:16:02.939Z,21.8
2022-07-26T16:21:09.048Z,21.5
2022-07-26T16:26:15.149Z,21.2
2022-07-26T16:31:21.244Z,21.2
2022-07-26T16:36:26.357Z,21.2
2022-07-26T16:41:32.437Z,21.8
2022-07-26T16:46:38.545Z,21.5
2022-07-26T16:51:44.644Z,21.2
2022-07-26T16:56:50.728Z,20.8
2022-07-26T17:01:56.825Z,20.8
2022-07-26T17:07:02.918Z,21.2
2022-07-26T17:12:09.017Z,20.8
2022-07-26T17:17:15.117Z,20.8
2022-07-26T17:22:21.205Z,21.2
2022-07-26T17:27:27.300Z,21.5
2022-07-26T17:32:33.386Z,21.2
2022-07-26T17:37:39.500Z,20.5
2022-07-26T17:42:44.600Z,21.5
2022-07-26T17:47:50.739Z,20.8
2022-07-26T17:52:56.798Z,21.2
2022-07-26T17:58:02.890Z,21.2
2022-07-26T18:03:08.994Z,21.2
2022-07-26T18:08:15.085Z,20.8
2022-07-26T18:13:21.162Z,20.8
2022-07-26T18:18:27.263Z,20.8
2022-07-26T18:23:33.374Z,20.5
2022-07-26T18:28:39.474Z,20.8
2022-07-26T18:33:45.560Z,20.8
2022-07-26T18:38:51.654Z,20.5
2022-07-26T18:43:57.735Z,20.5
2022-07-26T18:49:02.851Z,20.2
2022-07-26T18:54:08.948Z,20.2
2022-07-26T18:59:15.048Z,19.9
2022-07-26T19:04:21.148Z,19.9
2022-07-26T19:09:27.253Z,20.2
2022-07-26T19:14:33.341Z,20.2
2022-07-26T19:19:39.441Z,20.5
2022-07-26T19:24:45.535Z,19.9
2022-07-26T19:29:51.624Z,19.9
2022-07-26T19:34:57.717Z,20.2
2022-07-26T19:40:03.821Z,20.2
2022-07-26T19:45:09.906Z,19.9
2022-07-26T19:50:15.996Z,19.9
2022-07-26T19:55:21.125Z,20.2
2022-07-26T20:00:27.212Z,19.9
2022-07-26T20:05:33.313Z,19.6
2022-07-26T20:10:39.403Z,19.9
2022-07-26T20:15:45.516Z,19.9
2022-07-26T20:20:51.586Z,19.6
2022-07-26T20:25:57.705Z,19.6
2022-07-26T20:31:03.779Z,20.5
2022-07-26T20:36:09.889Z,19.6
2022-07-26T20:41:15.986Z,19.6
2022-07-26T20:46:22.069Z,20.2
2022-07-26T20:51:28.175Z,19.6
2022-07-26T20:56:34.271Z,19.9
2022-07-26T21:01:39.376Z,19.9
2022-07-26T21:06:45.482Z,19.6
2022-07-26T21:11:51.573Z,19.6
2022-07-26T21:16:57.675Z,19.6
2022-07-26T21:22:03.753Z,19.9
2022-07-26T21:27:09.851Z,19.6
2022-07-26T21:32:15.942Z,19.6
2022-07-26T21:37:22.046Z,19.6
2022-07-26T21:42:28.147Z,18.9
2022-07-26T21:47:34.245Z,19.2
2022-07-26T21:52:40.340Z,19.6
2022-07-26T21:57:46.453Z,19.9
2022-07-26T22:02:52.543Z,19.6
2022-07-26T22:07:57.647Z,18.9
2022-07-26T22:13:03.744Z,19.6
2022-07-26T22:18:09.839Z,18.9
2022-07-26T22:23:15.950Z,19.9
2022-07-26T22:28:22.016Z,18.6
2022-07-26T22:33:28.132Z,19.2
2022-07-26T22:38:34.218Z,19.6
2022-07-26T22:43:40.311Z,18.9
2022-07-26T22:48:46.403Z,18.6
2022-07-26T22:53:52.512Z,18.6
2022-07-26T22:58:58.608Z,18.6
2022-07-26T23:04:04.707Z,19.2
2022-07-26T23:09:10.790Z,19.2
2022-07-26T23:14:15.907Z,18.6
2022-07-26T23:19:21.997Z,18.6
2022-07-26T23:24:28.090Z,18.9
2022-07-26T23:29:34.197Z,18.3
2022-07-26T23:34:40.293Z,18.6
2022-07-26T23:39:46.394Z,18.9
2022-07-26T23:44:52.487Z,18.6
2022-07-26T23:49:58.591Z,18.6
2022-07-26T23:55:04.682Z,18.6
